首页
METAR-TAF:

METAR-TAF

机场 :

夏洛特道格拉斯國際機場

夏洛特, 北卡罗来纳州, 美国

纬度: 35-12-48N, 经度: 080-56-55W, 海拔: 228米

当前天气观测

该预报发布于1小时和1分钟前的21:52 UTC
风速9节,风向南转西南,有时为17节阵风
温度 27°C
湿度 62%
气压 1002 hPa
能見度: 16.1公里
散云层高于4000英尺
散云层高于5500英尺
多云层高于25000英尺

METAR: KCLT 292152Z 21009G17KT 10SM SCT040 SCT055 BKN250 27/19 A2958 RMK AO2 SLP006 T02670194

时间: 18:53 (22:53 UTC)

预报

该预报发布于58分钟前的21:55 UTC
预报有效从29日的 22点(UTC)到 30日的 24点(UTC)
风速15节,风向南转西南,有时为22节阵风
能見度: 10公里
散云层高于4500英尺
从 29日的 2300点(UTC)
风速12节,风向,有时为20节阵风
能見度: 10公里
多云层高于3000英尺
附近有阵雨
从 30日的 0300点(UTC)
风速10节,风向西转西南,有时为18节阵风
能見度: 10公里
少量云层高于6000英尺
从 30日的 0900点(UTC)
风速10节,风向西北,有时为18节阵风
能見度: 10公里
少量云层高于25000英尺

TAF: KCLT 292155Z 2922/3024 21015G22KT P6SM SCT045 FM292300 19012G20KT P6SM VCSH BKN030 FM300300 25010G18KT P6SM FEW060 FM300900 32010G18KT P6SM FEW250

超过4000个机场的气象观测和天气预报(METAR&TAF报告)。

可查询的气象台以黄色和红色小点在地图上表示。

将鼠标移到小点上方,可查看气象台名称。

然后点击查看天气观测和预报。

如需切换地图:点击带黑十字的绿色按钮放大地图;点击带横线的绿色按钮缩小地图;或者点击绿色箭头查看邻近地区的地图。


METAR-TAF: